createdAt,value
2018-09-10T00:00:13.113Z,15.55
2018-09-10T00:02:41.854Z,15.56
2018-09-10T00:05:10.552Z,15.57
2018-09-10T00:07:39.274Z,15.58
2018-09-10T00:10:08.012Z,15.60
2018-09-10T00:12:36.752Z,15.60
2018-09-10T00:15:06.149Z,15.61
2018-09-10T00:17:34.864Z,15.61
2018-09-10T00:20:03.604Z,15.63
2018-09-10T00:22:32.283Z,15.63
2018-09-10T00:25:01.094Z,15.64
2018-09-10T00:27:29.767Z,15.65
2018-09-10T00:29:58.439Z,15.66
2018-09-10T00:32:27.100Z,15.65
2018-09-10T00:34:55.814Z,15.65
2018-09-10T00:37:24.485Z,15.67
2018-09-10T00:39:53.168Z,15.68
2018-09-10T00:42:21.853Z,15.70
2018-09-10T00:44:50.571Z,15.70
2018-09-10T00:47:19.261Z,15.69
2018-09-10T00:49:47.967Z,15.68
2018-09-10T00:52:16.679Z,15.66
2018-09-10T00:54:45.372Z,15.65
2018-09-10T00:57:14.075Z,15.63
2018-09-10T00:59:42.779Z,15.62
2018-09-10T01:02:11.459Z,15.62
2018-09-10T01:04:40.154Z,15.62
2018-09-10T01:07:08.883Z,15.60
2018-09-10T01:09:37.560Z,15.61
2018-09-10T01:12:06.272Z,15.61
2018-09-10T01:14:34.973Z,15.63
2018-09-10T01:17:03.700Z,15.58
2018-09-10T01:19:32.458Z,15.63
2018-09-10T01:22:01.151Z,15.64
2018-09-10T01:24:29.839Z,15.65
2018-09-10T01:26:58.533Z,15.67
2018-09-10T01:29:27.248Z,15.67
2018-09-10T01:31:55.991Z,15.66
2018-09-10T01:34:29.839Z,15.68
2018-09-10T01:36:58.547Z,15.69
2018-09-10T01:39:27.277Z,15.69
2018-09-10T01:41:55.940Z,15.69
2018-09-10T01:44:24.759Z,15.68
2018-09-10T01:46:53.447Z,15.68
2018-09-10T01:49:22.205Z,15.67
2018-09-10T01:51:50.958Z,15.65
2018-09-10T01:54:19.652Z,15.64
2018-09-10T01:56:48.352Z,15.61
2018-09-10T01:59:17.692Z,15.58
2018-09-10T02:01:46.448Z,15.55
2018-09-10T02:04:15.116Z,15.53
2018-09-10T02:06:43.800Z,15.52
2018-09-10T02:09:12.505Z,15.48
2018-09-10T02:11:41.183Z,15.46
2018-09-10T02:14:09.851Z,15.43
2018-09-10T02:16:38.533Z,15.41
2018-09-10T02:19:07.325Z,15.40
2018-09-10T02:21:36.024Z,15.38
2018-09-10T02:24:04.756Z,15.37
2018-09-10T02:26:33.448Z,15.38
2018-09-10T02:29:02.186Z,15.38
2018-09-10T02:31:30.846Z,15.39
2018-09-10T02:33:59.560Z,15.39
2018-09-10T02:36:28.238Z,15.40
2018-09-10T02:38:56.945Z,15.43
2018-09-10T02:41:26.131Z,15.44
2018-09-10T02:43:54.807Z,15.45
2018-09-10T02:46:23.531Z,15.45
2018-09-10T02:48:52.215Z,15.46
2018-09-10T02:51:20.893Z,15.47
2018-09-10T02:53:49.548Z,15.48
2018-09-10T02:56:18.206Z,15.47
2018-09-10T02:58:46.869Z,15.46
2018-09-10T03:01:15.575Z,15.45
2018-09-10T03:03:44.251Z,15.45
2018-09-10T03:06:12.948Z,15.45
2018-09-10T03:08:41.672Z,15.45
2018-09-10T03:11:10.408Z,15.43
2018-09-10T03:13:39.060Z,15.42
2018-09-10T03:16:07.725Z,15.41
2018-09-10T03:18:36.416Z,15.40
2018-09-10T03:21:05.049Z,15.39
2018-09-10T03:23:33.830Z,15.37
2018-09-10T03:26:02.489Z,15.37
2018-09-10T03:28:31.140Z,15.36
2018-09-10T03:31:00.794Z,15.35
2018-09-10T03:33:30.432Z,15.33
2018-09-10T03:35:59.087Z,15.31
2018-09-10T03:38:27.831Z,15.29
2018-09-10T03:40:56.503Z,15.29
2018-09-10T03:43:25.291Z,15.28
2018-09-10T03:45:53.975Z,15.29
2018-09-10T03:48:22.680Z,15.30
2018-09-10T03:50:51.392Z,15.31
2018-09-10T03:53:20.096Z,15.31
2018-09-10T03:55:48.809Z,15.33
2018-09-10T03:58:17.509Z,15.34
2018-09-10T04:00:46.228Z,15.33
2018-09-10T04:03:14.895Z,15.33
2018-09-10T04:05:43.597Z,15.32
2018-09-10T04:08:12.287Z,15.32
2018-09-10T04:10:41.573Z,15.32
2018-09-10T04:13:10.342Z,15.29
2018-09-10T04:15:39.053Z,15.30
2018-09-10T04:18:07.755Z,15.29
2018-09-10T04:20:36.431Z,15.27
2018-09-10T04:23:05.109Z,15.27
2018-09-10T04:25:33.800Z,15.27
2018-09-10T04:28:02.489Z,15.27
2018-09-10T04:30:31.192Z,15.28
2018-09-10T04:32:59.895Z,15.28
2018-09-10T04:35:28.568Z,15.27
2018-09-10T04:37:58.004Z,15.26
2018-09-10T04:40:26.772Z,15.26
2018-09-10T04:42:55.430Z,15.25
2018-09-10T04:45:24.099Z,15.24
2018-09-10T04:47:52.777Z,15.25
2018-09-10T04:50:22.101Z,15.24
2018-09-10T04:52:50.785Z,15.23
2018-09-10T04:55:19.541Z,15.22
2018-09-10T04:57:48.329Z,15.21
2018-09-10T05:00:17.676Z,15.18
2018-09-10T05:02:46.380Z,15.16
2018-09-10T05:05:15.093Z,15.14
2018-09-10T05:07:44.739Z,15.12
2018-09-10T05:10:13.444Z,15.12
2018-09-10T05:12:42.117Z,15.10
2018-09-10T05:15:10.904Z,15.09
2018-09-10T05:17:39.631Z,15.07
2018-09-10T05:20:08.403Z,15.09
2018-09-10T05:22:37.075Z,15.08
2018-09-10T05:25:05.868Z,15.07
2018-09-10T05:27:34.588Z,15.08
2018-09-10T05:30:03.308Z,15.06
2018-09-10T05:32:32.004Z,15.04
2018-09-10T05:35:00.688Z,15.02
2018-09-10T05:37:29.385Z,15.01
2018-09-10T05:39:58.083Z,14.99
2018-09-10T05:42:27.489Z,14.95
2018-09-10T05:44:56.165Z,14.93
2018-09-10T05:47:24.994Z,14.90
2018-09-10T05:49:53.689Z,14.88
2018-09-10T05:52:22.414Z,14.87
2018-09-10T05:54:51.128Z,14.87
2018-09-10T05:57:21.508Z,14.85
2018-09-10T05:59:50.199Z,14.83
2018-09-10T06:02:19.760Z,14.87
2018-09-10T06:04:48.932Z,14.90
2018-09-10T06:07:17.668Z,14.92
2018-09-10T06:09:46.353Z,14.95
2018-09-10T06:12:15.041Z,14.98
2018-09-10T06:14:43.741Z,15.00
2018-09-10T06:17:12.435Z,15.02
2018-09-10T06:19:41.094Z,15.05
2018-09-10T06:22:09.765Z,15.08
2018-09-10T06:24:38.420Z,15.07
2018-09-10T06:27:07.089Z,15.15
2018-09-10T06:29:35.843Z,15.19
2018-09-10T06:32:04.834Z,15.25
2018-09-10T06:34:33.564Z,15.30
2018-09-10T06:37:02.374Z,15.34
2018-09-10T06:39:36.875Z,15.35
2018-09-10T06:42:44.002Z,15.37
2018-09-10T06:45:21.052Z,15.40
2018-09-10T06:48:03.500Z,15.40
2018-09-10T06:50:42.315Z,15.41
2018-09-10T06:53:18.005Z,15.42
2018-09-10T06:55:49.831Z,15.42
2018-09-10T06:58:21.752Z,15.44
2018-09-10T07:00:56.863Z,15.44
2018-09-10T07:03:34.694Z,15.43
2018-09-10T07:06:30.589Z,15.45
2018-09-10T07:09:11.340Z,15.51
2018-09-10T07:11:51.392Z,15.52
2018-09-10T07:14:22.569Z,15.55
2018-09-10T07:17:00.368Z,15.56
2018-09-10T07:19:35.379Z,15.62
2018-09-10T07:22:18.605Z,15.66
2018-09-10T07:24:58.233Z,15.73
2018-09-10T07:27:26.912Z,15.79
2018-09-10T07:29:55.603Z,15.84
2018-09-10T07:32:24.332Z,15.89
2018-09-10T07:34:53.036Z,15.92
2018-09-10T07:37:21.800Z,15.95
2018-09-10T07:39:50.508Z,16.00
2018-09-10T07:42:19.201Z,16.04
2018-09-10T07:44:47.880Z,16.09
2018-09-10T07:47:16.628Z,16.12
2018-09-10T07:49:45.418Z,16.14
2018-09-10T07:52:14.109Z,16.15
2018-09-10T07:54:42.894Z,16.15
2018-09-10T07:57:11.570Z,16.13
2018-09-10T07:59:40.281Z,16.11
2018-09-10T08:02:08.961Z,16.11
2018-09-10T08:04:37.655Z,16.11
2018-09-10T08:07:06.469Z,16.10
2018-09-10T08:09:35.187Z,16.11
2018-09-10T08:12:03.925Z,16.12
2018-09-10T08:14:32.660Z,16.15
2018-09-10T08:17:01.350Z,16.21
2018-09-10T08:19:30.074Z,16.24
2018-09-10T08:21:58.800Z,16.27
2018-09-10T08:24:27.616Z,16.32
2018-09-10T08:26:56.351Z,16.38
2018-09-10T08:29:25.112Z,16.43
2018-09-10T08:31:53.834Z,16.43
2018-09-10T08:34:22.552Z,16.47
2018-09-10T08:36:51.395Z,16.48
2018-09-10T08:39:20.084Z,16.48
2018-09-10T08:41:48.817Z,16.53
2018-09-10T08:44:17.521Z,16.65
2018-09-10T08:46:46.206Z,16.74
2018-09-10T08:49:14.876Z,16.76
2018-09-10T08:51:43.556Z,16.81
2018-09-10T08:54:12.314Z,16.87
2018-09-10T08:56:41.022Z,16.93
2018-09-10T08:59:09.708Z,17.02
2018-09-10T09:01:38.408Z,17.05
2018-09-10T09:04:07.356Z,17.03
2018-09-10T09:06:36.028Z,17.11
2018-09-10T09:09:05.460Z,17.17
2018-09-10T09:11:34.180Z,17.27
2018-09-10T09:14:02.861Z,17.33
2018-09-10T09:16:31.569Z,17.43
2018-09-10T09:19:00.275Z,17.50
2018-09-10T09:21:29.022Z,17.53
2018-09-10T09:23:57.955Z,17.59
2018-09-10T09:26:26.659Z,17.63
2018-09-10T09:28:55.385Z,17.67
2018-09-10T09:31:24.112Z,17.73
2018-09-10T09:33:52.859Z,17.73
2018-09-10T09:36:26.580Z,17.77
2018-09-10T09:39:00.255Z,17.86
2018-09-10T09:41:34.060Z,17.95
2018-09-10T09:44:07.731Z,17.96
2018-09-10T09:46:36.437Z,17.88
2018-09-10T09:49:05.215Z,17.94
2018-09-10T09:51:33.940Z,17.97
2018-09-10T09:54:02.624Z,17.95
2018-09-10T09:56:31.471Z,17.97
2018-09-10T09:59:00.171Z,17.96
2018-09-10T10:01:34.111Z,17.99
2018-09-10T10:04:08.146Z,18.05
2018-09-10T10:06:37.150Z,17.99
2018-09-10T10:09:09.261Z,18.01
2018-09-10T10:11:38.286Z,18.08
2018-09-10T10:14:07.723Z,18.13
2018-09-10T10:16:36.455Z,18.12
2018-09-10T10:19:05.221Z,18.21
2018-09-10T10:21:33.907Z,18.32
2018-09-10T10:24:02.605Z,18.38
2018-09-10T10:26:31.481Z,18.53
2018-09-10T10:29:00.218Z,18.62
2018-09-10T10:31:28.955Z,18.64
2018-09-10T10:33:57.716Z,18.62
2018-09-10T10:36:26.459Z,18.59
2018-09-10T10:38:55.167Z,18.63
2018-09-10T10:41:23.881Z,18.72
2018-09-10T10:43:52.687Z,18.92
2018-09-10T10:46:21.399Z,18.96
2018-09-10T10:48:50.083Z,18.93
2018-09-10T10:51:18.786Z,19.00
2018-09-10T10:53:47.505Z,19.10
2018-09-10T10:56:16.175Z,19.09
2018-09-10T10:58:44.883Z,19.05
2018-09-10T11:01:13.596Z,19.06
2018-09-10T11:03:42.340Z,19.18
2018-09-10T11:06:11.111Z,19.30
2018-09-10T11:08:39.854Z,19.39
2018-09-10T11:11:08.605Z,19.51
2018-09-10T11:13:37.316Z,19.63
2018-09-10T11:16:06.045Z,19.59
2018-09-10T11:18:34.791Z,19.49
2018-09-10T11:21:03.566Z,19.55
2018-09-10T11:23:32.246Z,19.61
2018-09-10T11:26:01.000Z,19.57
2018-09-10T11:28:29.740Z,19.70
2018-09-10T11:30:58.467Z,19.82
2018-09-10T11:33:27.216Z,20.01
2018-09-10T11:35:55.930Z,20.22
2018-09-10T11:38:24.657Z,20.17
2018-09-10T11:40:53.401Z,20.18
2018-09-10T11:43:22.235Z,20.23
2018-09-10T11:45:51.051Z,20.19
2018-09-10T11:48:19.725Z,20.19
2018-09-10T11:50:48.461Z,20.27
2018-09-10T11:53:17.202Z,20.49
2018-09-10T11:55:45.977Z,20.50
2018-09-10T11:58:14.700Z,20.47
2018-09-10T12:00:43.452Z,20.50
2018-09-10T12:03:12.216Z,20.51
2018-09-10T12:05:40.918Z,20.34
2018-09-10T12:08:09.685Z,20.19
2018-09-10T12:10:38.377Z,20.36
2018-09-10T12:13:07.159Z,20.53
2018-09-10T12:15:35.885Z,20.57
2018-09-10T12:18:04.586Z,20.55
2018-09-10T12:20:33.301Z,20.59
2018-09-10T12:23:02.064Z,20.58
2018-09-10T12:25:30.788Z,20.61
2018-09-10T12:27:59.480Z,20.66
2018-09-10T12:30:28.206Z,20.63
2018-09-10T12:32:56.928Z,20.70
2018-09-10T12:35:25.733Z,20.69
2018-09-10T12:37:54.504Z,20.66
2018-09-10T12:40:23.190Z,20.77
2018-09-10T12:42:51.893Z,20.75
2018-09-10T12:45:20.619Z,20.67
2018-09-10T12:47:49.318Z,20.73
2018-09-10T12:50:18.003Z,20.82
2018-09-10T12:52:46.689Z,21.00
2018-09-10T12:55:15.432Z,20.95
2018-09-10T12:57:44.186Z,21.00
2018-09-10T13:00:13.023Z,21.06
2018-09-10T13:02:41.808Z,20.99
2018-09-10T13:05:10.520Z,21.07
2018-09-10T13:07:39.301Z,21.05
2018-09-10T13:10:08.024Z,20.98
2018-09-10T13:12:36.709Z,20.92
2018-09-10T13:15:05.476Z,20.85
2018-09-10T13:17:34.148Z,20.76
2018-09-10T13:20:02.837Z,20.78
2018-09-10T13:22:31.565Z,20.81
2018-09-10T13:25:00.258Z,20.95
2018-09-10T13:27:28.965Z,21.01
2018-09-10T13:29:57.688Z,21.00
2018-09-10T13:32:26.474Z,21.04
2018-09-10T13:34:55.174Z,20.87
2018-09-10T13:37:23.936Z,20.70
2018-09-10T13:39:52.596Z,20.59
2018-09-10T13:42:21.302Z,20.47
2018-09-10T13:44:49.997Z,20.40
2018-09-10T13:47:20.214Z,20.37
2018-09-10T13:49:48.965Z,20.39
2018-09-10T13:52:17.726Z,20.35
2018-09-10T13:54:46.436Z,20.34
2018-09-10T13:57:15.121Z,20.36
2018-09-10T13:59:43.901Z,20.26
2018-09-10T14:02:12.567Z,20.12
2018-09-10T14:04:41.294Z,19.99
2018-09-10T14:07:10.101Z,19.99
2018-09-10T14:09:38.794Z,19.90
2018-09-10T14:12:07.597Z,19.90
2018-09-10T14:14:36.285Z,19.98
2018-09-10T14:17:04.996Z,20.07
2018-09-10T14:19:33.693Z,20.19
2018-09-10T14:22:02.413Z,20.17
2018-09-10T14:24:31.094Z,20.18
2018-09-10T14:26:59.851Z,20.18
2018-09-10T14:29:28.559Z,20.15
2018-09-10T14:31:57.332Z,20.10
2018-09-10T14:34:26.127Z,20.03
2018-09-10T14:36:54.888Z,20.01
2018-09-10T14:39:23.728Z,19.97
2018-09-10T14:41:52.492Z,19.98
2018-09-10T14:44:21.213Z,19.84
2018-09-10T14:46:49.982Z,19.87
2018-09-10T14:49:18.691Z,19.86
2018-09-10T14:51:47.393Z,19.79
2018-09-10T14:54:16.084Z,19.74
2018-09-10T14:56:44.766Z,19.64
2018-09-10T14:59:13.449Z,19.63
2018-09-10T15:01:42.176Z,19.66
2018-09-10T15:04:10.997Z,19.67
2018-09-10T15:06:39.686Z,19.72
2018-09-10T15:09:09.173Z,19.62
2018-09-10T15:11:38.066Z,19.60
2018-09-10T15:14:06.871Z,19.57
2018-09-10T15:16:36.567Z,19.49
2018-09-10T15:19:05.570Z,19.41
2018-09-10T15:21:34.391Z,19.41
2018-09-10T15:24:03.167Z,19.40
2018-09-10T15:26:31.967Z,19.42
2018-09-10T15:29:00.804Z,19.40
2018-09-10T15:31:29.604Z,19.42
2018-09-10T15:33:58.482Z,19.36
2018-09-10T15:36:28.059Z,19.37
2018-09-10T15:38:56.941Z,19.35
2018-09-10T15:41:26.170Z,19.39
2018-09-10T15:43:55.048Z,19.36
2018-09-10T15:46:23.868Z,19.27
2018-09-10T15:48:52.784Z,19.18
2018-09-10T15:51:21.857Z,19.11
2018-09-10T15:53:50.560Z,19.10
2018-09-10T15:56:19.320Z,19.08
2018-09-10T15:58:48.224Z,19.05
2018-09-10T16:01:17.073Z,19.03
2018-09-10T16:03:45.932Z,19.01
2018-09-10T16:06:14.680Z,19.02
2018-09-10T16:08:43.555Z,19.05
2018-09-10T16:11:12.265Z,19.02
2018-09-10T16:13:40.971Z,19.05
2018-09-10T16:16:09.710Z,19.05
2018-09-10T16:18:38.385Z,18.99
2018-09-10T16:21:07.056Z,18.89
2018-09-10T16:23:35.759Z,18.84
2018-09-10T16:26:04.564Z,18.79
2018-09-10T16:28:33.341Z,18.77
2018-09-10T16:31:02.268Z,18.72
2018-09-10T16:33:31.065Z,18.71
2018-09-10T16:35:59.789Z,18.68
2018-09-10T16:38:28.540Z,18.67
2018-09-10T16:40:57.350Z,18.66
2018-09-10T16:43:26.088Z,18.66
2018-09-10T16:45:54.851Z,18.65
2018-09-10T16:48:23.646Z,18.66
2018-09-10T16:50:52.457Z,18.65
2018-09-10T16:53:21.201Z,18.63
2018-09-10T16:55:49.899Z,18.57
2018-09-10T16:58:18.573Z,18.53
2018-09-10T17:00:47.343Z,18.52
2018-09-10T17:03:16.060Z,18.53
2018-09-10T17:05:44.822Z,18.50
2018-09-10T17:08:13.520Z,18.48
2018-09-10T17:10:42.371Z,18.45
2018-09-10T17:13:10.984Z,18.42
2018-09-10T17:15:39.827Z,18.41
2018-09-10T17:18:08.719Z,18.40
2018-09-10T17:20:37.441Z,18.40
2018-09-10T17:23:06.209Z,18.40
2018-09-10T17:25:34.992Z,18.40
2018-09-10T17:28:03.709Z,18.37
2018-09-10T17:30:32.418Z,18.36
2018-09-10T17:33:01.179Z,18.37
2018-09-10T17:35:29.888Z,18.37
2018-09-10T17:37:58.621Z,18.36
2018-09-10T17:40:27.356Z,18.37
2018-09-10T17:42:56.084Z,18.38
2018-09-10T17:45:24.860Z,18.38
2018-09-10T17:47:53.671Z,18.39
2018-09-10T17:50:22.375Z,18.39
2018-09-10T17:52:51.139Z,18.40
2018-09-10T17:55:19.862Z,18.41
2018-09-10T17:57:48.610Z,18.41
2018-09-10T18:00:17.360Z,18.39
2018-09-10T18:02:46.109Z,18.40
2018-09-10T18:05:14.928Z,18.39
2018-09-10T18:07:43.800Z,18.37
2018-09-10T18:10:12.514Z,18.34
2018-09-10T18:12:41.256Z,18.32
2018-09-10T18:15:10.052Z,18.30
2018-09-10T18:17:38.729Z,18.28
2018-09-10T18:20:07.449Z,18.25
2018-09-10T18:22:36.383Z,18.23
2018-09-10T18:25:05.277Z,18.21
2018-09-10T18:27:34.022Z,18.20
2018-09-10T18:30:02.724Z,18.17
2018-09-10T18:32:31.437Z,18.14
2018-09-10T18:35:00.123Z,18.16
2018-09-10T18:37:29.181Z,18.14
2018-09-10T18:39:57.904Z,18.14
2018-09-10T18:42:26.648Z,18.15
2018-09-10T18:44:55.301Z,18.15
2018-09-10T18:47:23.993Z,18.14
2018-09-10T18:49:52.680Z,18.13
2018-09-10T18:52:21.328Z,18.13
2018-09-10T18:54:50.013Z,18.13
2018-09-10T18:57:18.736Z,18.12
2018-09-10T18:59:47.464Z,18.15
2018-09-10T19:02:16.180Z,18.15
2018-09-10T19:04:44.870Z,18.16
2018-09-10T19:07:13.576Z,18.17
2018-09-10T19:09:42.321Z,18.13
2018-09-10T19:12:10.996Z,18.14
2018-09-10T19:14:39.760Z,18.13
2018-09-10T19:17:08.520Z,18.13
2018-09-10T19:19:37.220Z,18.13
2018-09-10T19:22:05.901Z,18.12
2018-09-10T19:24:34.606Z,18.13
2018-09-10T19:27:03.304Z,18.14
2018-09-10T19:29:31.972Z,18.13
2018-09-10T19:32:00.788Z,18.14
2018-09-10T19:34:29.563Z,18.13
2018-09-10T19:36:58.299Z,18.14
2018-09-10T19:39:26.969Z,18.13
2018-09-10T19:41:55.658Z,18.12
2018-09-10T19:44:24.375Z,18.12
2018-09-10T19:46:53.120Z,18.11
2018-09-10T19:49:21.795Z,18.10
2018-09-10T19:51:50.596Z,18.08
2018-09-10T19:54:19.420Z,18.10
2018-09-10T19:56:48.107Z,18.07
2018-09-10T19:59:16.828Z,18.04
2018-09-10T20:01:45.515Z,18.03
2018-09-10T20:04:14.201Z,18.03
2018-09-10T20:06:42.908Z,18.02
2018-09-10T20:09:12.155Z,18.01
2018-09-10T20:11:40.789Z,18.00
2018-09-10T20:14:09.699Z,17.98
2018-09-10T20:16:38.355Z,17.97
2018-09-10T20:19:07.415Z,17.97
2018-09-10T20:21:36.188Z,17.95
2018-09-10T20:24:04.899Z,17.94
2018-09-10T20:26:33.612Z,17.93
2018-09-10T20:29:02.348Z,17.92
2018-09-10T20:31:31.048Z,17.92
2018-09-10T20:34:04.896Z,17.92
2018-09-10T20:36:34.152Z,17.92
2018-09-10T20:39:03.072Z,17.94
2018-09-10T20:41:31.843Z,17.94
2018-09-10T20:44:00.564Z,17.94
2018-09-10T20:46:29.289Z,17.94
2018-09-10T20:48:58.009Z,17.94
2018-09-10T20:51:26.708Z,17.95
2018-09-10T20:53:55.477Z,17.97
2018-09-10T20:56:24.492Z,17.96
2018-09-10T20:58:53.199Z,17.97
2018-09-10T21:01:22.068Z,17.96
2018-09-10T21:03:52.060Z,17.97
2018-09-10T21:06:20.846Z,17.98
2018-09-10T21:08:49.548Z,17.98
2018-09-10T21:11:18.261Z,17.98
2018-09-10T21:13:46.940Z,17.98
2018-09-10T21:16:15.636Z,17.99
2018-09-10T21:18:44.321Z,17.99
2018-09-10T21:21:13.059Z,17.99
2018-09-10T21:23:41.739Z,18.00
2018-09-10T21:26:10.456Z,17.99
2018-09-10T21:28:39.164Z,17.99
2018-09-10T21:31:07.890Z,18.00
2018-09-10T21:33:36.619Z,17.99
2018-09-10T21:36:05.343Z,17.99
2018-09-10T21:38:34.008Z,17.99
2018-09-10T21:41:02.748Z,17.98
2018-09-10T21:43:31.501Z,17.97
2018-09-10T21:46:00.230Z,17.96
2018-09-10T21:48:28.920Z,17.95
2018-09-10T21:50:57.631Z,17.93
2018-09-10T21:53:26.336Z,17.92
2018-09-10T21:55:54.996Z,17.90
2018-09-10T21:58:23.668Z,17.88
2018-09-10T22:00:55.205Z,17.89
2018-09-10T22:03:23.955Z,17.89
2018-09-10T22:05:52.919Z,17.88
2018-09-10T22:08:21.628Z,17.87
2018-09-10T22:10:50.364Z,17.88
2018-09-10T22:13:19.066Z,17.87
2018-09-10T22:15:47.720Z,17.85
2018-09-10T22:18:16.371Z,17.85
2018-09-10T22:20:45.245Z,17.83
2018-09-10T22:23:13.943Z,17.81
2018-09-10T22:26:02.019Z,17.80
2018-09-10T22:28:30.676Z,17.80
2018-09-10T22:30:59.408Z,17.79
2018-09-10T22:33:28.137Z,17.79
2018-09-10T22:35:56.831Z,17.80
2018-09-10T22:38:25.552Z,17.80
2018-09-10T22:40:54.240Z,17.79
2018-09-10T22:43:22.984Z,17.77
2018-09-10T22:45:51.697Z,17.77
2018-09-10T22:48:20.380Z,17.76
2018-09-10T22:50:49.121Z,17.76
2018-09-10T22:53:17.831Z,17.75
2018-09-10T22:55:46.496Z,17.75
2018-09-10T22:58:15.183Z,17.74
2018-09-10T23:00:43.917Z,17.74
2018-09-10T23:03:12.823Z,17.72
2018-09-10T23:05:41.506Z,17.74
2018-09-10T23:08:10.219Z,17.73
2018-09-10T23:10:38.921Z,17.73
2018-09-10T23:13:07.978Z,17.73
2018-09-10T23:15:36.645Z,17.72
2018-09-10T23:18:05.334Z,17.72
2018-09-10T23:20:34.004Z,17.72
2018-09-10T23:23:02.697Z,17.71
2018-09-10T23:25:31.380Z,17.71
2018-09-10T23:28:00.072Z,17.72
2018-09-10T23:30:28.785Z,17.73
2018-09-10T23:32:57.500Z,17.73
2018-09-10T23:35:26.252Z,17.73
2018-09-10T23:37:54.919Z,17.75
2018-09-10T23:40:23.604Z,17.73
2018-09-10T23:42:52.285Z,17.75
2018-09-10T23:45:21.075Z,17.74
2018-09-10T23:47:49.801Z,17.76
2018-09-10T23:50:19.355Z,17.75
2018-09-10T23:52:48.060Z,17.76
2018-09-10T23:55:16.745Z,17.76
2018-09-10T23:57:45.411Z,17.77
